createdAt,value
2022-10-14T07:14:56.253Z,25.00
2022-10-14T07:37:23.087Z,31.43
2022-10-14T07:39:51.758Z,35.27
2022-10-14T07:44:54.374Z,35.37
2022-10-14T07:47:23.193Z,38.47
2022-10-14T07:49:51.784Z,35.10
2022-10-14T07:52:21.583Z,37.07
2022-10-14T07:54:50.015Z,36.70
2022-10-14T07:57:18.465Z,34.40
2022-10-14T07:59:47.370Z,35.20
2022-10-14T08:02:15.522Z,40.40
2022-10-14T08:04:43.888Z,32.10
2022-10-14T08:07:14.433Z,34.47
2022-10-14T08:09:44.397Z,38.30
2022-10-14T08:12:12.670Z,35.40
2022-10-14T08:14:41.332Z,33.07
2022-10-14T08:17:09.721Z,34.27
2022-10-14T08:19:38.209Z,34.63
2022-10-14T08:22:06.406Z,38.60
2022-10-14T08:24:34.594Z,38.03
2022-10-14T08:27:05.656Z,32.40
2022-10-14T08:29:33.923Z,31.67
2022-10-14T08:32:01.952Z,37.63
2022-10-14T08:34:30.329Z,32.97
2022-10-14T08:36:58.593Z,32.07
2022-10-14T08:39:26.842Z,33.10
2022-10-14T08:42:20.748Z,33.73
2022-10-14T08:44:56.871Z,30.00
2022-10-14T08:47:27.394Z,36.13
2022-10-14T08:50:01.589Z,35.90
2022-10-14T08:52:37.555Z,30.90
2022-10-14T08:55:18.909Z,28.37
2022-10-14T08:57:53.434Z,38.37
2022-10-14T09:00:23.817Z,29.93
2022-10-14T09:02:53.379Z,30.57
2022-10-14T09:05:24.740Z,28.23
2022-10-14T09:07:56.609Z,28.00
2022-10-14T09:10:32.156Z,32.67
2022-10-14T09:13:04.145Z,34.37
2022-10-14T09:15:37.411Z,30.07
2022-10-14T09:18:08.296Z,30.03
2022-10-14T09:20:36.721Z,33.33
2022-10-14T09:23:15.730Z,32.47
2022-10-14T09:25:53.997Z,37.13
2022-10-14T09:28:23.643Z,35.23
2022-10-14T09:30:53.528Z,32.83
2022-10-14T09:33:22.675Z,37.07
2022-10-14T09:35:51.347Z,38.90
2022-10-14T09:38:20.863Z,42.23
2022-10-14T09:40:52.409Z,43.57
2022-10-14T09:43:22.079Z,36.23
2022-10-14T09:45:55.867Z,40.70
2022-10-14T09:48:44.876Z,35.17
2022-10-14T09:51:21.996Z,35.97
2022-10-14T09:53:53.440Z,39.07
2022-10-14T09:56:30.681Z,45.13
2022-10-14T09:58:59.796Z,39.43
2022-10-14T10:01:33.824Z,38.73
2022-10-14T10:04:27.528Z,44.97
2022-10-14T10:06:57.017Z,36.03
2022-10-14T10:09:28.353Z,38.40
2022-10-14T10:11:56.806Z,36.47
2022-10-14T10:14:27.416Z,31.50
2022-10-14T10:17:18.245Z,32.73
2022-10-14T10:19:51.642Z,29.20
2022-10-14T10:22:26.772Z,27.23
2022-10-14T10:25:21.117Z,19.47
2022-10-14T10:27:51.038Z,19.40
2022-10-14T10:30:24.745Z,17.60
2022-10-14T10:33:19.074Z,15.60
2022-10-14T10:39:00.236Z,18.20
2022-10-14T10:41:47.710Z,16.67
2022-10-14T10:44:58.945Z,17.43
2022-10-14T10:47:45.763Z,19.63
2022-10-14T10:50:30.866Z,22.53
2022-10-14T10:53:29.486Z,22.30
2022-10-14T10:56:10.300Z,30.30
2022-10-14T10:58:44.317Z,27.40
2022-10-14T11:01:32.033Z,29.33
2022-10-14T11:04:18.518Z,28.07
2022-10-14T11:07:27.776Z,25.03
2022-10-14T11:10:21.756Z,24.47
2022-10-14T11:12:59.728Z,24.40
2022-10-14T11:15:43.403Z,24.60
2022-10-14T11:18:20.759Z,20.13
2022-10-14T11:21:04.229Z,11.37
2022-10-14T11:23:57.312Z,14.93
2022-10-14T11:26:38.461Z,12.83
2022-10-14T11:29:20.408Z,13.50
2022-10-14T11:31:53.718Z,12.63
2022-10-14T11:34:44.369Z,12.83
2022-10-14T11:37:26.532Z,13.83
2022-10-14T11:39:59.871Z,12.07
2022-10-14T11:42:38.828Z,10.17
2022-10-14T11:45:21.635Z,9.13
2022-10-14T11:47:54.336Z,8.40
2022-10-14T11:50:26.418Z,7.83
2022-10-14T11:52:59.488Z,11.60
2022-10-14T11:55:34.451Z,11.27
2022-10-14T11:58:07.989Z,14.27
2022-10-14T12:00:38.415Z,17.30
2022-10-14T12:03:14.450Z,18.00
2022-10-14T12:05:48.490Z,15.40
2022-10-14T12:08:27.023Z,14.40
2022-10-14T12:11:04.455Z,15.57
2022-10-14T12:13:37.812Z,13.00
2022-10-14T12:16:11.858Z,13.63
2022-10-14T12:18:40.686Z,12.83
2022-10-14T12:21:16.530Z,15.90
2022-10-14T12:23:49.755Z,18.37
2022-10-14T12:26:36.247Z,16.93
2022-10-14T12:29:05.883Z,14.10
2022-10-14T12:31:36.870Z,14.37
2022-10-14T12:34:36.383Z,13.00
2022-10-14T12:37:38.134Z,12.07
2022-10-14T12:40:30.273Z,13.57
2022-10-14T12:43:20.109Z,16.37
2022-10-14T12:46:11.467Z,13.17
2022-10-14T12:48:47.219Z,12.40
2022-10-14T12:51:17.725Z,11.50
2022-10-14T12:54:04.927Z,11.83
2022-10-14T12:56:37.643Z,8.23
2022-10-14T12:59:10.869Z,10.23
2022-10-14T13:01:39.739Z,9.70
2022-10-14T13:04:20.174Z,13.17
2022-10-14T13:07:41.520Z,9.60
2022-10-14T13:10:47.297Z,13.53
2022-10-14T13:13:53.662Z,12.17
2022-10-14T13:17:28.367Z,12.00
2022-10-14T13:19:56.654Z,11.90
2022-10-14T13:22:40.946Z,13.93
2022-10-14T13:25:18.290Z,11.73
2022-10-14T13:28:10.077Z,12.10
2022-10-14T13:30:48.782Z,13.97
2022-10-14T13:33:25.011Z,15.80
2022-10-14T13:36:06.936Z,17.87
2022-10-14T13:38:36.077Z,17.63
2022-10-14T13:41:06.893Z,15.90
2022-10-14T13:43:41.253Z,20.20
2022-10-14T13:46:15.505Z,17.17
2022-10-14T13:48:48.826Z,25.57
2022-10-14T13:51:36.676Z,20.37
2022-10-14T13:54:17.870Z,20.07
2022-10-14T13:57:19.792Z,21.50
2022-10-14T14:00:22.496Z,29.17
2022-10-14T14:02:36.624Z,22.47
2022-10-14T14:05:07.287Z,22.47
2022-10-14T14:08:20.790Z,24.30
2022-10-14T14:10:27.195Z,20.67
2022-10-14T14:12:55.717Z,20.97
2022-10-14T14:15:26.879Z,21.30
2022-10-14T14:17:55.888Z,19.23
2022-10-14T14:20:28.390Z,17.37
2022-10-14T14:23:00.368Z,20.63
2022-10-14T14:25:36.149Z,20.10
2022-10-14T14:28:07.149Z,19.80
2022-10-14T14:30:37.458Z,16.23
2022-10-14T14:33:08.491Z,17.10
2022-10-14T14:35:38.483Z,22.57
2022-10-14T14:38:06.907Z,23.80
2022-10-14T14:40:35.162Z,16.33
2022-10-14T14:43:05.705Z,18.47
2022-10-14T14:45:42.358Z,21.47
2022-10-14T14:48:14.314Z,16.03
2022-10-14T14:50:46.749Z,12.67
2022-10-14T14:53:18.771Z,12.10
2022-10-14T14:55:49.567Z,12.60
2022-10-14T14:58:29.368Z,10.60
2022-10-14T15:00:58.012Z,14.13
2022-10-14T15:03:28.752Z,10.50
2022-10-14T15:06:00.995Z,13.63
2022-10-14T15:08:33.341Z,10.13
2022-10-14T15:11:02.225Z,12.10
2022-10-14T15:13:34.130Z,14.43
2022-10-14T15:16:02.557Z,17.17
2022-10-14T15:18:31.272Z,14.30
2022-10-14T15:21:15.739Z,14.33
2022-10-14T15:24:00.681Z,15.10
2022-10-14T15:26:34.847Z,19.07
2022-10-14T15:29:15.131Z,15.90
2022-10-14T15:31:45.728Z,15.67
2022-10-14T15:34:21.754Z,19.37
2022-10-14T15:36:54.969Z,19.33
2022-10-14T15:39:23.805Z,17.77
2022-10-14T15:41:52.720Z,13.87
2022-10-14T15:44:21.084Z,20.27
2022-10-14T15:47:06.673Z,20.70
2022-10-14T15:49:39.280Z,26.17
2022-10-14T15:52:14.837Z,18.17
2022-10-14T15:54:43.604Z,19.03
2022-10-14T15:57:15.572Z,18.87
2022-10-14T15:59:45.135Z,18.00
2022-10-14T16:02:18.935Z,17.47
2022-10-14T16:05:07.090Z,15.70
2022-10-14T16:07:37.452Z,27.23
2022-10-14T16:10:07.446Z,17.57
2022-10-14T16:12:35.837Z,19.10
2022-10-14T16:17:34.237Z,28.67
